Time;durP1;ratioP1;P1;durP2;ratioP2;P2;SDS_P1;SDS_P2;PMS_P1;PMS_P2;Temp;Humidity;BMP_temperature;BMP_pressure;BME280_temperature;BME280_humidity;BME280_pressure;Samples;Min_cycle;Max_cycle;Signal;HPM_P1;HPM_P2
2021/10/14 00:01:21;;;;;;;25.88;23.65;;;7.00;99.90;;;;;;4955579;28;20035;-76
2021/10/14 00:03:47;;;;;;;26.98;24.83;;;7.10;99.90;;;;;;4956291;28;20027;-76
2021/10/14 00:06:14;;;;;;;26.77;24.42;;;7.20;99.90;;;;;;4971252;28;20357;-77
2021/10/14 00:08:40;;;;;;;25.63;23.48;;;7.20;99.90;;;;;;4956732;28;20046;-76
2021/10/14 00:11:06;;;;;;;25.35;23.35;;;7.20;99.90;;;;;;4962258;28;20035;-77
2021/10/14 00:13:33;;;;;;;26.85;24.42;;;7.20;99.90;;;;;;4955730;28;20027;-77
2021/10/14 00:15:59;;;;;;;25.42;23.17;;;7.30;99.90;;;;;;4967401;28;20035;-77
2021/10/14 00:18:25;;;;;;;23.98;21.88;;;7.20;99.90;;;;;;4955398;28;20039;-76
2021/10/14 00:20:51;;;;;;;23.23;20.90;;;7.10;99.90;;;;;;4970217;28;20095;-77
2021/10/14 00:23:18;;;;;;;24.98;22.52;;;7.10;99.90;;;;;;4955313;28;20243;-77
2021/10/14 00:25:44;;;;;;;23.38;21.45;;;7.10;99.90;;;;;;4955873;28;20027;-77
2021/10/14 00:28:10;;;;;;;24.50;22.50;;;7.00;99.90;;;;;;4955195;28;20479;-77
2021/10/14 00:30:36;;;;;;;24.38;22.33;;;7.00;99.90;;;;;;4955630;28;20037;-76
2021/10/14 00:33:02;;;;;;;24.63;22.58;;;7.00;99.90;;;;;;4930223;28;20038;-77
2021/10/14 00:35:29;;;;;;;23.65;21.75;;;6.90;99.90;;;;;;4954319;29;20050;-76
2021/10/14 00:37:55;;;;;;;24.42;22.00;;;6.90;99.90;;;;;;4972140;28;20038;-77
2021/10/14 00:40:22;;;;;;;25.38;23.08;;;6.90;99.90;;;;;;4973519;28;20043;-77
2021/10/14 00:42:49;;;;;;;23.48;21.75;;;6.90;99.90;;;;;;4964519;28;20038;-76
2021/10/14 00:45:15;;;;;;;24.40;22.50;;;6.90;99.90;;;;;;4955136;28;20042;-77
2021/10/14 00:47:41;;;;;;;23.88;21.98;;;6.80;99.90;;;;;;4968475;28;20039;-77
2021/10/14 00:50:09;;;;;;;25.85;23.70;;;6.90;99.90;;;;;;4957895;28;20042;-78
2021/10/14 00:52:38;;;;;;;26.63;24.35;;;6.90;99.90;;;;;;4972037;28;20466;-77
2021/10/14 00:55:05;;;;;;;24.55;22.23;;;6.90;99.90;;;;;;4972802;28;20487;-79
2021/10/14 00:57:32;;;;;;;25.63;23.40;;;6.90;99.90;;;;;;4955167;28;20488;-77
2021/10/14 00:59:59;;;;;;;24.80;22.90;;;7.00;99.90;;;;;;4966054;28;20039;-78
2021/10/14 01:02:25;;;;;;;25.70;23.45;;;7.00;99.90;;;;;;4956574;28;20031;-77
2021/10/14 01:04:54;;;;;;;26.65;24.33;;;7.00;99.90;;;;;;4937834;29;20031;-77
2021/10/14 01:07:21;;;;;;;23.48;21.52;;;7.00;99.90;;;;;;4972207;28;20429;-79
2021/10/14 01:09:47;;;;;;;25.73;22.00;;;7.00;99.90;;;;;;4963171;28;20031;-78
2021/10/14 01:12:14;;;;;;;25.40;23.30;;;7.00;99.90;;;;;;4954879;28;20035;-78
2021/10/14 01:14:41;;;;;;;25.27;23.20;;;7.00;99.90;;;;;;4954723;29;20031;-78
2021/10/14 01:17:07;;;;;;;24.75;22.42;;;6.90;99.90;;;;;;4937084;28;20047;-78
2021/10/14 01:19:36;;;;;;;23.25;21.45;;;6.80;99.90;;;;;;4936416;29;20054;-78
2021/10/14 01:22:02;;;;;;;23.17;21.25;;;6.80;99.90;;;;;;4970590;28;20045;-78
2021/10/14 01:24:29;;;;;;;24.48;22.48;;;6.80;99.90;;;;;;4968240;28;20039;-78
2021/10/14 01:26:55;;;;;;;22.40;20.67;;;6.70;99.90;;;;;;4954086;28;20046;-77
2021/10/14 01:29:21;;;;;;;23.25;21.25;;;6.70;99.90;;;;;;4966966;28;20035;-78
2021/10/14 01:31:47;;;;;;;23.83;21.83;;;6.60;99.90;;;;;;4971116;28;20380;-78
2021/10/14 01:34:15;;;;;;;25.30;22.98;;;6.60;99.90;;;;;;4938694;28;20057;-77
2021/10/14 01:36:41;;;;;;;44.97;23.75;;;6.50;99.90;;;;;;4972789;28;20034;-78
2021/10/14 01:39:07;;;;;;;25.90;23.45;;;6.60;99.90;;;;;;4972451;28;20468;-79
2021/10/14 01:41:33;;;;;;;28.40;23.73;;;6.50;99.90;;;;;;4972494;28;20035;-78
2021/10/14 01:43:59;;;;;;;24.88;22.85;;;6.50;99.90;;;;;;4962599;28;20396;-79
2021/10/14 01:46:26;;;;;;;24.40;22.48;;;6.40;99.90;;;;;;4966073;28;20035;-77
2021/10/14 01:48:52;;;;;;;26.90;24.75;;;6.40;99.90;;;;;;4960474;28;20460;-77
2021/10/14 01:51:18;;;;;;;26.52;24.27;;;6.40;99.90;;;;;;4967375;28;20027;-77
2021/10/14 01:53:44;;;;;;;29.42;27.00;;;6.30;99.90;;;;;;4956139;28;20038;-77
2021/10/14 01:56:11;;;;;;;27.17;24.65;;;6.30;99.90;;;;;;4946292;29;20038;-78
2021/10/14 01:58:37;;;;;;;27.92;25.63;;;6.30;99.90;;;;;;4955482;28;20031;-78
2021/10/14 02:01:03;;;;;;;28.55;26.10;;;6.30;99.90;;;;;;4962440;28;20047;-78
2021/10/14 02:03:29;;;;;;;30.42;28.13;;;6.30;99.90;;;;;;4956769;28;20058;-77
2021/10/14 02:05:55;;;;;;;28.85;26.13;;;6.30;99.90;;;;;;4955272;28;20031;-78
2021/10/14 02:08:21;;;;;;;28.98;26.75;;;6.30;99.90;;;;;;4973318;28;20046;-77
2021/10/14 02:10:48;;;;;;;28.45;25.92;;;6.20;99.90;;;;;;4971092;28;20035;-78
2021/10/14 02:13:14;;;;;;;29.35;27.00;;;6.20;99.90;;;;;;4958821;28;20062;-76
2021/10/14 02:15:40;;;;;;;27.52;25.40;;;6.20;99.90;;;;;;4954588;28;20042;-75
2021/10/14 02:18:07;;;;;;;28.75;26.00;;;6.20;99.90;;;;;;4969148;28;20053;-75
2021/10/14 02:20:33;;;;;;;28.38;26.25;;;6.20;99.90;;;;;;4961911;28;20039;-79
2021/10/14 02:22:59;;;;;;;28.95;26.73;;;6.10;99.90;;;;;;4965226;28;20044;-76
2021/10/14 02:25:26;;;;;;;30.95;28.65;;;6.10;99.90;;;;;;4959622;28;20031;-77
2021/10/14 02:27:52;;;;;;;32.75;29.90;;;6.20;99.90;;;;;;4960348;28;20035;-75
2021/10/14 02:30:18;;;;;;;32.17;29.52;;;6.20;99.90;;;;;;4961387;28;20572;-78
2021/10/14 02:32:44;;;;;;;29.58;27.38;;;6.30;99.90;;;;;;4922256;28;20046;-77
2021/10/14 02:35:10;;;;;;;30.70;28.35;;;6.30;99.90;;;;;;4968409;28;20027;-77
2021/10/14 02:37:37;;;;;;;31.75;29.02;;;6.30;99.90;;;;;;4963629;28;20046;-77
2021/10/14 02:40:05;;;;;;;30.33;28.00;;;6.30;99.90;;;;;;4941931;29;20046;-78
2021/10/14 02:42:31;;;;;;;31.67;28.77;;;6.30;99.90;;;;;;4957236;28;20023;-78
2021/10/14 02:44:57;;;;;;;31.40;28.50;;;6.30;99.90;;;;;;4972554;28;20037;-77
2021/10/14 02:47:24;;;;;;;29.45;27.05;;;6.20;99.90;;;;;;4962520;28;20038;-78
2021/10/14 02:49:50;;;;;;;30.90;28.27;;;6.20;99.90;;;;;;4963185;28;20054;-78
2021/10/14 02:52:16;;;;;;;31.60;29.08;;;6.20;99.90;;;;;;4966800;28;20048;-77
2021/10/14 02:54:42;;;;;;;31.73;29.05;;;6.10;99.90;;;;;;4961159;28;20492;-78
2021/10/14 02:57:09;;;;;;;29.95;27.67;;;6.10;99.90;;;;;;4958163;28;20495;-78
2021/10/14 02:59:35;;;;;;;33.22;30.50;;;6.10;99.90;;;;;;4959978;28;20038;-75
2021/10/14 03:02:01;;;;;;;32.08;29.67;;;6.10;99.90;;;;;;4960873;28;20051;-79
2021/10/14 03:04:27;;;;;;;31.50;29.00;;;6.10;99.90;;;;;;4967014;28;20403;-75
2021/10/14 03:06:53;;;;;;;32.20;29.63;;;6.00;99.90;;;;;;4969893;28;20027;-75
2021/10/14 03:09:19;;;;;;;33.17;30.65;;;6.10;99.90;;;;;;4963902;28;20042;-75
2021/10/14 03:11:46;;;;;;;31.65;29.15;;;6.00;99.90;;;;;;4969244;28;20033;-74
2021/10/14 03:14:12;;;;;;;33.22;30.27;;;6.10;99.90;;;;;;4974982;28;20027;-75
2021/10/14 03:16:38;;;;;;;31.90;29.35;;;6.10;99.90;;;;;;4965686;28;20062;-75
2021/10/14 03:19:04;;;;;;;33.95;31.13;;;6.10;99.90;;;;;;4958393;28;20405;-76
2021/10/14 03:21:30;;;;;;;36.13;31.40;;;6.20;99.90;;;;;;4959458;28;20035;-77
2021/10/14 03:23:57;;;;;;;36.67;33.75;;;6.20;99.90;;;;;;4963111;28;20031;-76
2021/10/14 03:26:23;;;;;;;34.05;31.35;;;6.20;99.90;;;;;;4972215;28;20039;-76
2021/10/14 03:28:53;;;;;;;34.13;31.38;;;6.20;99.90;;;;;;4940049;28;20035;-77
2021/10/14 03:31:19;;;;;;;25.30;23.40;;;6.30;99.90;;;;;;4978011;28;20039;-77
2021/10/14 03:33:45;;;;;;;35.20;29.00;;;6.30;99.90;;;;;;4957048;28;20031;-76
2021/10/14 03:36:12;;;;;;;30.48;28.08;;;6.20;99.90;;;;;;4973485;28;20031;-76
2021/10/14 03:38:38;;;;;;;30.40;27.98;;;6.30;99.90;;;;;;4973709;28;20043;-76
2021/10/14 03:41:05;;;;;;;33.38;30.23;;;6.20;99.90;;;;;;4974467;28;20043;-77
2021/10/14 03:43:31;;;;;;;32.45;29.23;;;6.20;99.90;;;;;;4955863;28;20039;-77
2021/10/14 03:45:57;;;;;;;32.30;29.58;;;6.20;99.90;;;;;;4955967;28;20464;-77
2021/10/14 03:48:23;;;;;;;32.83;30.02;;;6.20;99.90;;;;;;4965260;28;20042;-77
2021/10/14 03:50:49;;;;;;;33.53;30.48;;;6.10;99.90;;;;;;4974698;28;20031;-76
2021/10/14 03:53:15;;;;;;;33.33;30.65;;;6.10;99.90;;;;;;4945861;28;20396;-76
2021/10/14 03:55:42;;;;;;;34.20;31.40;;;6.20;99.90;;;;;;4956129;28;20031;-76
2021/10/14 03:58:08;;;;;;;35.33;32.42;;;6.20;99.90;;;;;;4947457;28;20388;-75
2021/10/14 04:00:34;;;;;;;32.97;30.48;;;6.20;99.90;;;;;;4962912;28;20066;-76
2021/10/14 04:03:00;;;;;;;33.75;30.90;;;6.20;99.90;;;;;;4963735;28;20047;-76
2021/10/14 04:05:27;;;;;;;35.80;32.90;;;6.20;99.90;;;;;;4955690;28;20035;-76
2021/10/14 04:07:53;;;;;;;39.20;35.40;;;6.20;99.90;;;;;;4971448;28;20427;-77
2021/10/14 04:10:19;;;;;;;35.63;32.30;;;6.20;99.90;;;;;;4962332;28;20030;-77
2021/10/14 04:12:45;;;;;;;37.85;34.33;;;6.10;99.90;;;;;;4966953;28;20042;-75
2021/10/14 04:15:12;;;;;;;37.65;34.20;;;6.10;99.90;;;;;;4956202;28;20500;-76
2021/10/14 04:17:38;;;;;;;38.13;34.67;;;6.10;99.90;;;;;;4961333;28;20055;-76
2021/10/14 04:20:05;;;;;;;40.55;36.10;;;6.10;99.90;;;;;;4960691;28;20042;-76
2021/10/14 04:22:31;;;;;;;38.47;35.22;;;6.10;99.90;;;;;;4965561;28;20376;-76
2021/10/14 04:24:57;;;;;;;38.10;35.03;;;6.10;99.90;;;;;;4973757;28;20035;-76
2021/10/14 04:27:23;;;;;;;39.63;35.85;;;6.10;99.90;;;;;;4955663;28;20040;-75
2021/10/14 04:29:50;;;;;;;37.95;34.67;;;6.20;99.90;;;;;;4955633;28;20050;-77
2021/10/14 04:32:16;;;;;;;40.28;36.78;;;6.20;99.90;;;;;;4955024;28;20031;-76
2021/10/14 04:34:42;;;;;;;41.65;37.72;;;6.20;99.90;;;;;;4963373;28;20039;-76
2021/10/14 04:37:08;;;;;;;39.25;35.35;;;6.20;99.90;;;;;;4956399;28;20039;-76
2021/10/14 04:39:39;;;;;;;39.38;36.08;;;6.20;99.90;;;;;;4969363;28;20035;-76
2021/10/14 04:42:06;;;;;;;37.37;34.13;;;6.20;99.90;;;;;;4955507;28;20027;-76
2021/10/14 04:44:33;;;;;;;40.38;36.92;;;6.20;99.90;;;;;;4967865;28;20305;-78
2021/10/14 04:47:02;;;;;;;42.13;38.05;;;6.30;99.90;;;;;;4966611;28;20461;-76
2021/10/14 04:49:28;;;;;;;40.58;37.15;;;6.20;99.90;;;;;;4970040;28;20429;-75
2021/10/14 04:51:54;;;;;;;40.70;37.25;;;6.20;99.90;;;;;;4957814;28;20046;-76
2021/10/14 04:54:21;;;;;;;42.70;37.25;;;6.30;99.90;;;;;;4972928;28;20405;-77
2021/10/14 04:56:47;;;;;;;41.85;36.95;;;6.30;99.90;;;;;;4960794;28;20460;-76
2021/10/14 04:59:13;;;;;;;39.90;36.45;;;6.30;99.90;;;;;;4972501;28;20034;-76
2021/10/14 05:01:39;;;;;;;38.58;35.28;;;6.20;99.90;;;;;;4952519;29;20469;-76
2021/10/14 05:04:05;;;;;;;39.30;35.90;;;6.20;99.90;;;;;;4954573;28;20054;-77
2021/10/14 05:06:32;;;;;;;36.85;33.88;;;6.30;99.90;;;;;;4954859;28;20035;-77
2021/10/14 05:08:58;;;;;;;35.20;32.40;;;6.30;99.90;;;;;;4954935;28;20035;-76
2021/10/14 05:11:24;;;;;;;35.72;32.88;;;6.30;99.90;;;;;;4954471;28;20100;-77
2021/10/14 05:13:52;;;;;;;35.38;32.38;;;6.30;99.90;;;;;;4949839;28;20034;-77
2021/10/14 05:16:18;;;;;;;37.65;34.35;;;6.30;99.90;;;;;;4972500;28;20059;-76
2021/10/14 05:18:44;;;;;;;32.30;29.73;;;6.30;99.90;;;;;;4972709;28;20047;-76
2021/10/14 05:21:10;;;;;;;33.63;30.90;;;6.30;99.90;;;;;;4972845;28;20047;-76
2021/10/14 05:23:37;;;;;;;33.13;30.50;;;6.30;99.90;;;;;;4974121;28;20038;-77
2021/10/14 05:26:03;;;;;;;31.65;29.33;;;6.30;99.90;;;;;;4962060;28;20038;-76
2021/10/14 05:28:30;;;;;;;31.75;29.02;;;6.30;99.90;;;;;;4972683;28;20034;-79
2021/10/14 05:30:57;;;;;;;32.10;29.45;;;6.30;99.90;;;;;;4957541;28;20050;-77
2021/10/14 05:33:23;;;;;;;30.05;27.33;;;6.30;99.90;;;;;;4953542;28;20031;-76
2021/10/14 05:35:49;;;;;;;29.48;26.98;;;6.30;99.90;;;;;;4965399;28;20030;-77
2021/10/14 05:38:15;;;;;;;29.88;27.48;;;6.30;99.90;;;;;;4971161;28;20031;-77
2021/10/14 05:40:42;;;;;;;28.80;26.70;;;6.30;99.90;;;;;;4956578;28;20050;-76
2021/10/14 05:43:08;;;;;;;30.75;28.65;;;6.30;99.90;;;;;;4961736;28;20042;-79
2021/10/14 05:45:34;;;;;;;31.20;28.63;;;6.30;99.90;;;;;;4953986;28;20040;-77
2021/10/14 05:48:01;;;;;;;29.08;26.48;;;6.30;99.90;;;;;;4937211;29;20047;-77
2021/10/14 05:50:27;;;;;;;29.08;26.65;;;6.30;99.90;;;;;;4953532;28;20035;-76
2021/10/14 05:52:53;;;;;;;28.40;26.00;;;6.40;99.90;;;;;;4965407;28;20038;-76
2021/10/14 05:55:19;;;;;;;29.27;26.70;;;6.40;99.90;;;;;;4936537;29;20035;-76
2021/10/14 05:57:46;;;;;;;27.42;25.05;;;6.40;99.90;;;;;;4957584;28;20459;-76
2021/10/14 06:00:12;;;;;;;27.27;24.98;;;6.40;99.90;;;;;;4963397;28;20039;-77
2021/10/14 06:02:39;;;;;;;25.92;24.02;;;6.40;99.90;;;;;;4968518;28;20031;-77
2021/10/14 06:05:05;;;;;;;27.55;25.13;;;6.40;99.90;;;;;;4967239;28;20023;-77
2021/10/14 06:07:34;;;;;;;27.40;25.17;;;6.50;99.90;;;;;;4969653;28;20518;-75
2021/10/14 06:10:01;;;;;;;29.38;26.40;;;6.40;99.90;;;;;;4960222;28;20035;-75
2021/10/14 06:12:27;;;;;;;24.65;22.80;;;6.50;99.90;;;;;;4978421;28;20031;-76
2021/10/14 06:14:53;;;;;;;26.90;24.58;;;6.40;99.90;;;;;;4966061;28;20366;-75
2021/10/14 06:17:19;;;;;;;25.15;22.85;;;6.50;99.90;;;;;;4965404;28;20047;-75
2021/10/14 06:19:45;;;;;;;24.50;22.45;;;6.50;99.90;;;;;;4959363;28;20047;-75
2021/10/14 06:22:12;;;;;;;25.60;23.17;;;6.50;99.90;;;;;;4959926;28;20034;-75
2021/10/14 06:24:38;;;;;;;24.92;22.35;;;6.50;99.90;;;;;;4946164;28;20038;-75
2021/10/14 06:27:04;;;;;;;24.17;22.02;;;6.50;99.90;;;;;;4959790;28;20028;-75
2021/10/14 06:29:30;;;;;;;21.95;20.15;;;6.50;99.90;;;;;;4957196;28;20218;-76
2021/10/14 06:31:59;;;;;;;24.17;21.73;;;6.50;99.90;;;;;;4965107;28;20034;-75
2021/10/14 06:34:26;;;;;;;22.45;20.50;;;6.50;99.90;;;;;;4957780;28;20039;-75
2021/10/14 06:36:52;;;;;;;23.73;21.40;;;6.50;99.90;;;;;;4971602;28;20031;-74
2021/10/14 06:39:18;;;;;;;24.30;22.27;;;6.60;99.90;;;;;;4955957;28;20043;-75
2021/10/14 06:41:44;;;;;;;20.95;19.27;;;6.60;99.90;;;;;;4951934;28;20051;-74
2021/10/14 06:44:11;;;;;;;23.40;21.25;;;6.70;99.90;;;;;;4973657;28;20031;-74
2021/10/14 06:46:39;;;;;;;22.48;20.63;;;6.80;99.90;;;;;;4975606;28;20039;-74
2021/10/14 06:49:06;;;;;;;21.15;19.42;;;6.90;99.90;;;;;;4945963;28;20397;-74
2021/10/14 06:51:32;;;;;;;20.30;18.70;;;7.00;99.90;;;;;;4969778;28;20034;-73
2021/10/14 06:53:59;;;;;;;19.02;17.48;;;7.10;99.90;;;;;;4956908;29;20035;-72
2021/10/14 06:56:25;;;;;;;19.67;17.75;;;7.10;99.90;;;;;;4959523;28;20027;-73
2021/10/14 06:58:51;;;;;;;16.95;15.43;;;7.10;99.90;;;;;;4975093;28;20045;-73
2021/10/14 07:01:17;;;;;;;17.35;15.60;;;7.10;99.90;;;;;;4974235;28;20039;-73
2021/10/14 07:03:44;;;;;;;18.08;16.52;;;7.10;99.90;;;;;;4967015;28;20039;-73
2021/10/14 07:06:10;;;;;;;17.52;15.77;;;7.20;99.90;;;;;;4963269;28;20027;-74
2021/10/14 07:08:36;;;;;;;16.38;15.02;;;7.10;99.90;;;;;;4975351;28;20041;-73
2021/10/14 07:11:03;;;;;;;19.08;15.65;;;7.30;99.90;;;;;;4953745;28;20412;-73
2021/10/14 07:13:29;;;;;;;16.02;14.57;;;7.40;99.90;;;;;;4965661;28;20035;-73
2021/10/14 07:15:58;;;;;;;15.48;14.07;;;7.40;99.90;;;;;;4954240;28;20485;-73
2021/10/14 07:18:24;;;;;;;14.40;12.90;;;7.50;99.90;;;;;;4963971;28;20050;-73
2021/10/14 07:20:50;;;;;;;15.48;12.95;;;7.60;99.90;;;;;;4950211;28;20050;-73
2021/10/14 07:23:17;;;;;;;13.20;12.27;;;7.70;99.90;;;;;;4948387;29;20036;-73
2021/10/14 07:25:44;;;;;;;14.32;12.98;;;7.80;99.90;;;;;;4963414;28;20031;-73
2021/10/14 07:28:13;;;;;;;13.40;12.27;;;7.80;99.90;;;;;;4962666;28;20076;-73
2021/10/14 07:30:41;;;;;;;15.00;11.93;;;7.90;99.90;;;;;;4965564;28;20042;-73
2021/10/14 07:33:15;;;;;;;16.15;12.20;;;7.90;99.90;;;;;;4966679;28;20391;-73
2021/10/14 07:35:44;;;;;;;14.75;12.63;;;8.20;99.90;;;;;;4963590;28;20043;-73
2021/10/14 07:38:10;;;;;;;15.05;12.23;;;8.30;99.90;;;;;;4964249;28;20031;-73
2021/10/14 07:40:41;;;;;;;13.00;10.95;;;8.50;99.90;;;;;;4949672;28;20055;-73
2021/10/14 07:43:12;;;;;;;;;;;8.20;99.90;;;;;;4967854;28;20042;-73
2021/10/14 07:45:43;;;;;;;12.30;11.20;;;8.00;99.90;;;;;;4964553;28;19914;-72
2021/10/14 07:48:13;;;;;;;12.30;10.88;;;8.00;99.90;;;;;;4962473;28;20031;-73
2021/10/14 07:50:39;;;;;;;12.98;11.77;;;8.00;99.90;;;;;;4964416;28;20038;-73
2021/10/14 07:53:13;;;;;;;12.55;11.45;;;8.00;99.90;;;;;;4955548;28;20488;-73
2021/10/14 07:55:39;;;;;;;14.43;13.23;;;7.90;99.90;;;;;;4956511;28;20043;-73
2021/10/14 07:58:05;;;;;;;19.10;11.38;;;8.00;99.90;;;;;;4972821;28;20042;-73
2021/10/14 08:00:32;;;;;;;12.25;11.23;;;8.10;99.90;;;;;;4964248;28;20043;-74
2021/10/14 08:02:58;;;;;;;13.32;12.13;;;8.30;99.90;;;;;;4953064;28;20047;-73
2021/10/14 08:05:25;;;;;;;14.02;12.80;;;8.40;99.90;;;;;;4956284;28;20043;-74
2021/10/14 08:07:51;;;;;;;13.15;11.70;;;8.50;99.90;;;;;;4962126;28;20106;-74
2021/10/14 08:10:17;;;;;;;12.15;11.25;;;8.40;99.90;;;;;;4961561;28;20039;-73
2021/10/14 08:12:43;;;;;;;13.27;12.02;;;8.50;99.90;;;;;;4963400;28;20042;-73
2021/10/14 08:15:10;;;;;;;16.05;10.85;;;8.80;99.90;;;;;;4974428;28;20027;-73
2021/10/14 08:17:37;;;;;;;12.85;10.25;;;8.90;99.90;;;;;;4975362;28;20043;-72
2021/10/14 08:20:08;;;;;;;11.20;10.10;;;9.00;99.90;;;;;;4956426;28;20035;-73
2021/10/14 08:22:37;;;;;;;11.98;10.15;;;9.10;99.90;;;;;;4968485;28;20058;-73
2021/10/14 08:25:15;;;;;;;11.38;10.38;;;9.10;99.90;;;;;;4941371;28;20054;-73
2021/10/14 08:27:42;;;;;;;10.57;9.50;;;9.20;99.90;;;;;;4955425;28;20039;-73
2021/10/14 08:30:11;;;;;;;11.07;8.38;;;9.30;99.90;;;;;;4958982;28;20026;-73
2021/10/14 08:32:38;;;;;;;11.57;10.40;;;9.40;99.90;;;;;;4956752;28;20043;-73
2021/10/14 08:35:04;;;;;;;9.25;8.48;;;9.40;99.90;;;;;;4972993;28;20468;-73
2021/10/14 08:37:32;;;;;;;8.85;8.07;;;9.40;99.90;;;;;;4968852;28;20027;-73
2021/10/14 08:39:58;;;;;;;10.65;8.85;;;9.40;99.90;;;;;;4963215;28;20035;-74
2021/10/14 08:42:24;;;;;;;14.57;8.73;;;9.50;99.90;;;;;;4945936;28;20051;-74
2021/10/14 08:44:52;;;;;;;8.43;7.63;;;9.40;99.90;;;;;;4960754;28;20477;-73
2021/10/14 08:47:18;;;;;;;10.75;7.95;;;9.50;99.90;;;;;;4962664;28;20050;-74
2021/10/14 08:49:46;;;;;;;11.30;9.63;;;9.60;99.90;;;;;;4964027;28;20035;-73
2021/10/14 08:52:15;;;;;;;9.20;8.27;;;9.60;99.90;;;;;;4963822;28;20330;-73
2021/10/14 08:54:42;;;;;;;10.85;8.68;;;9.60;99.90;;;;;;4960202;28;20035;-73
2021/10/14 08:57:08;;;;;;;16.08;8.05;;;9.80;99.90;;;;;;4963911;28;20030;-73
2021/10/14 08:59:35;;;;;;;10.07;8.98;;;10.00;99.90;;;;;;4967529;28;20035;-74
2021/10/14 09:02:08;;;;;;;11.13;9.82;;;10.20;99.90;;;;;;4954172;28;20492;-73
2021/10/14 09:04:42;;;;;;;10.10;9.10;;;10.00;99.90;;;;;;4972938;28;20050;-75
2021/10/14 09:07:16;;;;;;;9.73;8.93;;;9.80;99.90;;;;;;4953564;29;20046;-76
2021/10/14 09:09:43;;;;;;;9.55;8.55;;;9.90;99.90;;;;;;4971261;28;20383;-75
2021/10/14 09:12:12;;;;;;;11.75;9.68;;;10.00;99.90;;;;;;4971645;28;20046;-75
2021/10/14 09:14:54;;;;;;;11.13;10.10;;;10.30;99.90;;;;;;4954979;28;20050;-74
2021/10/14 09:17:52;;;;;;;13.95;8.85;;;10.70;99.90;;;;;;4962153;28;20047;-76
2021/10/14 09:20:29;;;;;;;13.45;8.95;;;10.90;99.90;;;;;;4967764;28;20030;-73
2021/10/14 09:23:11;;;;;;;7.90;7.30;;;11.00;99.90;;;;;;4957216;28;20060;-72
2021/10/14 09:25:44;;;;;;;8.75;7.50;;;11.10;99.20;;;;;;4969188;28;20047;-72
2021/10/14 09:28:16;;;;;;;10.35;8.90;;;11.30;98.80;;;;;;4958929;28;20028;-73
2021/10/14 09:30:43;;;;;;;7.00;6.35;;;11.40;98.00;;;;;;4961520;28;20156;-73
2021/10/14 09:33:31;;;;;;;8.88;6.55;;;11.50;97.00;;;;;;4964089;28;20026;-73
2021/10/14 09:36:23;;;;;;;6.13;5.63;;;11.30;97.00;;;;;;4963640;28;20031;-76
2021/10/14 09:38:57;;;;;;;7.28;5.85;;;11.00;97.70;;;;;;4971581;28;20042;-76
2021/10/14 09:41:24;;;;;;;8.32;5.70;;;11.00;98.00;;;;;;4958526;28;20039;-76
2021/10/14 09:43:53;;;;;;;7.95;7.18;;;10.80;97.90;;;;;;4956874;28;20484;-76
2021/10/14 09:46:47;;;;;;;9.35;7.68;;;10.90;97.70;;;;;;4957617;28;20046;-76
2021/10/14 09:49:20;;;;;;;7.43;6.72;;;11.20;97.80;;;;;;4951500;28;20050;-76
2021/10/14 09:51:47;;;;;;;7.20;6.55;;;11.50;97.00;;;;;;4965667;28;20053;-77
2021/10/14 09:54:13;;;;;;;7.40;6.45;;;11.70;95.80;;;;;;4967803;28;20043;-75
2021/10/14 09:56:40;;;;;;;6.65;6.07;;;11.60;96.00;;;;;;4944934;28;20042;-74
2021/10/14 09:59:06;;;;;;;9.82;5.93;;;11.60;96.00;;;;;;4970662;28;20066;-75
2021/10/14 10:01:36;;;;;;;14.45;6.13;;;11.70;95.60;;;;;;4966990;28;20484;-75
2021/10/14 10:04:03;;;;;;;8.70;6.60;;;11.70;95.40;;;;;;4968958;28;20026;-74
2021/10/14 10:06:32;;;;;;;7.82;6.82;;;11.70;96.40;;;;;;4943267;29;20032;-76
2021/10/14 10:09:04;;;;;;;6.25;5.60;;;11.60;95.40;;;;;;4956802;28;20065;-75
2021/10/14 10:11:32;;;;;;;9.00;8.20;;;11.50;96.40;;;;;;4956941;28;20047;-76
2021/10/14 10:14:02;;;;;;;9.02;6.88;;;11.80;95.10;;;;;;4961362;28;20035;-75
2021/10/14 10:16:28;;;;;;;16.98;6.63;;;11.80;94.80;;;;;;4974978;28;20054;-75
2021/10/14 10:18:56;;;;;;;7.72;6.40;;;12.00;94.80;;;;;;4966158;28;20035;-76
2021/10/14 10:21:32;;;;;;;8.20;6.70;;;12.20;94.00;;;;;;4968962;28;20042;-77
2021/10/14 10:24:03;;;;;;;11.13;5.95;;;12.10;93.70;;;;;;4963531;28;20043;-76
2021/10/14 10:26:35;;;;;;;9.82;6.88;;;12.30;94.20;;;;;;4938126;29;20032;-76
2021/10/14 10:29:01;;;;;;;8.02;5.47;;;12.50;92.30;;;;;;4964457;28;20042;-75
2021/10/14 10:31:53;;;;;;;7.13;6.43;;;12.40;92.60;;;;;;4959920;28;20043;-78
2021/10/14 10:34:34;;;;;;;6.20;5.28;;;12.20;92.20;;;;;;4957146;28;20049;-78
2021/10/14 10:37:26;;;;;;;5.20;4.80;;;12.40;92.30;;;;;;4957110;28;20042;-77
2021/10/14 10:39:55;;;;;;;6.82;4.93;;;12.70;92.60;;;;;;4955801;29;20032;-75
2021/10/14 10:42:58;;;;;;;7.20;4.80;;;13.00;91.00;;;;;;4972558;28;20046;-76
2021/10/14 10:45:31;;;;;;;7.50;5.30;;;13.20;90.40;;;;;;4963912;28;20039;-77
2021/10/14 10:48:02;;;;;;;6.40;5.05;;;13.00;90.20;;;;;;4958595;28;20058;-77
2021/10/14 10:50:28;;;;;;;5.53;4.43;;;12.90;90.70;;;;;;4964535;28;20046;-76
2021/10/14 10:53:09;;;;;;;6.95;5.35;;;13.20;90.80;;;;;;4973918;28;20038;-77
2021/10/14 10:55:39;;;;;;;;;;;13.30;90.00;;;;;;4975304;28;20038;-76
2021/10/14 10:58:08;;;;;;;5.55;5.00;;;13.30;90.10;;;;;;4964340;28;19917;-76
2021/10/14 11:00:37;;;;;;;5.78;5.18;;;13.40;88.40;;;;;;4973312;28;20031;-77
2021/10/14 11:03:08;;;;;;;5.45;4.95;;;13.60;88.50;;;;;;4967683;28;20029;-78
2021/10/14 11:05:38;;;;;;;13.95;5.53;;;13.30;87.70;;;;;;4960396;28;20039;-77
2021/10/14 11:08:10;;;;;;;8.07;5.05;;;13.40;89.10;;;;;;4966161;28;20476;-76
2021/10/14 11:10:36;;;;;;;10.32;3.13;;;13.50;88.60;;;;;;4939327;28;20047;-75
2021/10/14 11:13:02;;;;;;;8.02;4.25;;;13.70;87.30;;;;;;4969356;28;20042;-75
2021/10/14 11:15:29;;;;;;;4.85;4.35;;;13.80;85.50;;;;;;4968051;28;20035;-76
2021/10/14 11:18:03;;;;;;;5.00;3.80;;;14.00;85.70;;;;;;4969927;28;20055;-76
2021/10/14 11:20:30;;;;;;;6.57;4.50;;;14.40;84.60;;;;;;4977122;28;20031;-79
2021/10/14 11:23:02;;;;;;;6.32;4.60;;;14.30;83.60;;;;;;4957225;28;20057;-76
2021/10/14 11:25:29;;;;;;;5.07;3.75;;;14.50;83.40;;;;;;4975156;28;20026;-76
2021/10/14 11:28:13;;;;;;;6.40;4.18;;;14.70;81.10;;;;;;4975340;28;20044;-75
2021/10/14 11:30:47;;;;;;;8.40;3.65;;;14.80;80.40;;;;;;4957855;28;20031;-76
2021/10/14 11:33:32;;;;;;;6.05;3.88;;;15.00;80.40;;;;;;4966724;28;20028;-77
2021/10/14 11:36:01;;;;;;;6.93;3.95;;;14.70;78.80;;;;;;4975825;28;20047;-77
2021/10/14 11:38:28;;;;;;;4.13;3.72;;;14.70;79.00;;;;;;4958899;28;20039;-77
2021/10/14 11:40:55;;;;;;;4.57;3.92;;;14.70;80.50;;;;;;4949054;28;20027;-78
2021/10/14 11:43:26;;;;;;;4.15;3.25;;;15.00;78.80;;;;;;4966816;28;20047;-79
2021/10/14 11:45:54;;;;;;;4.72;3.63;;;14.90;79.50;;;;;;4951123;28;20031;-79
2021/10/14 11:48:34;;;;;;;4.32;3.95;;;15.20;79.30;;;;;;4959276;28;20397;-78
2021/10/14 11:51:08;;;;;;;;;;;15.50;77.80;;;;;;4957161;28;20039;-78
2021/10/14 11:53:35;;;;;;;4.07;3.40;;;15.50;77.80;;;;;;4960306;28;19932;-79
2021/10/14 11:56:05;;;;;;;5.40;3.45;;;15.30;76.40;;;;;;4964143;28;20046;-80
2021/10/14 11:58:32;;;;;;;6.30;3.88;;;15.10;77.40;;;;;;4956453;28;20481;-79
2021/10/14 12:01:03;;;;;;;5.97;4.20;;;15.00;79.00;;;;;;4938865;28;20042;-79
2021/10/14 12:03:33;;;;;;;6.25;4.45;;;14.90;77.50;;;;;;4970231;28;20043;-79
2021/10/14 12:05:59;;;;;;;8.77;4.68;;;15.10;79.80;;;;;;4956563;28;20505;-79
2021/10/14 12:08:26;;;;;;;6.05;4.05;;;15.20;78.60;;;;;;4969295;28;20037;-83
2021/10/14 12:10:54;;;;;;;5.40;4.10;;;15.00;77.60;;;;;;4959412;28;20031;-80
2021/10/14 12:13:29;;;;;;;8.68;4.72;;;14.80;80.10;;;;;;4941449;28;20039;-80
2021/10/14 12:16:14;;;;;;;10.15;4.07;;;15.20;78.10;;;;;;4975690;28;20031;-79
2021/10/14 12:18:41;;;;;;;7.55;3.55;;;15.20;78.70;;;;;;4955731;29;20054;-80
2021/10/14 12:21:29;;;;;;;5.95;4.80;;;15.20;77.60;;;;;;4955147;29;20046;-80
2021/10/14 12:24:18;;;;;;;8.23;5.05;;;15.20;77.90;;;;;;4919677;29;20052;-79
2021/10/14 12:26:53;;;;;;;6.57;4.63;;;15.20;79.30;;;;;;4932567;29;20043;-79
2021/10/14 12:29:32;;;;;;;5.80;4.55;;;15.20;78.10;;;;;;4948662;29;20465;-80
2021/10/14 12:32:11;;;;;;;6.78;4.70;;;15.20;77.20;;;;;;4937748;29;20042;-80
2021/10/14 12:34:58;;;;;;;6.43;4.38;;;14.80;77.60;;;;;;4937565;29;20040;-80
2021/10/14 12:37:29;;;;;;;4.00;3.58;;;14.70;79.10;;;;;;4941604;29;20031;-80
2021/10/14 12:40:15;;;;;;;3.90;3.50;;;14.90;78.50;;;;;;4952013;29;20043;-79
2021/10/14 12:42:55;;;;;;;4.13;3.67;;;15.10;78.30;;;;;;4920594;29;20043;-80
2021/10/14 12:45:31;;;;;;;8.18;3.85;;;15.10;77.40;;;;;;4950721;29;20039;-79
2021/10/14 12:51:35;;;;;;;4.53;3.83;;;15.40;76.60;;;;;;4936593;29;20047;-77